Terminal Aerodrome Forecast
Issued by NWS

Home | Current Version | Previous Version | Text Only | Print | Product List | Glossary On
Versions: 1 2 3 4 5 6 7 8 9 10 11 12 13
000
FTUS43 KABR 281139
TAFMBG
TAF
KMBG 281139Z 2812/2912 24009KT P6SM SCT250
     FM281800 29009KT P6SM OVC250
     FM290000 35007KT P6SM OVC250 PROB30 2900/2902 -TSRA BKN050CB=

USA.gov is the U.S. government's official web portal to all federal, state and local government web resources and services.